Time;durP1;ratioP1;P1;durP2;ratioP2;P2;SDS_P1;SDS_P2;PMS_P1;PMS_P2;Temp;Humidity;BMP_temperature;BMP_pressure;BME280_temperature;BME280_humidity;BME280_pressure;Samples;Min_cycle;Max_cycle;Signal;HPM_P1;HPM_P2
2022/04/22 00:01:28;;;;;;;6.97;6.37;;;;;;;;;;5092248;28;20509;-78
2022/04/22 00:03:55;;;;;;;6.80;6.20;;;;;;;;;;5092056;28;20481;-77
2022/04/22 00:06:22;;;;;;;9.30;6.30;;;;;;;;;;5091914;28;20509;-76
2022/04/22 00:08:51;;;;;;;7.37;6.77;;;;;;;;;;5091835;28;20448;-76
2022/04/22 00:11:30;;;;;;;7.23;6.63;;;;;;;;;;5092122;28;20436;-77
2022/04/22 00:13:58;;;;;;;7.17;6.60;;;;;;;;;;5091703;28;20544;-76
2022/04/22 00:16:25;;;;;;;8.40;7.53;;;;;;;;;;5090599;28;20527;-77
2022/04/22 00:18:52;;;;;;;7.53;6.83;;;;;;;;;;5093696;28;20452;-77
2022/04/22 00:21:19;;;;;;;6.90;6.40;;;;;;;;;;5091871;28;20436;-78
2022/04/22 00:23:46;;;;;;;7.83;7.07;;;;;;;;;;5091522;28;20459;-76
2022/04/22 00:26:14;;;;;;;7.40;6.80;;;;;;;;;;5091181;28;20455;-76
2022/04/22 00:28:41;;;;;;;8.00;6.90;;;;;;;;;;5091538;28;20463;-77
2022/04/22 00:31:08;;;;;;;7.30;6.70;;;;;;;;;;5091268;28;20432;-76
2022/04/22 00:33:35;;;;;;;7.33;6.73;;;;;;;;;;5091220;28;20483;-76
2022/04/22 00:36:02;;;;;;;8.63;7.77;;;;;;;;;;5091343;28;20492;-77
2022/04/22 00:38:30;;;;;;;8.60;7.80;;;;;;;;;;5095347;28;20444;-76
2022/04/22 00:40:57;;;;;;;7.77;7.07;;;;;;;;;;5095349;28;20454;-77
2022/04/22 00:43:26;;;;;;;7.83;7.13;;;;;;;;;;5091192;28;20440;-76
2022/04/22 00:45:54;;;;;;;8.20;7.40;;;;;;;;;;5091547;28;20967;-78
2022/04/22 00:48:22;;;;;;;9.13;8.33;;;;;;;;;;5091366;28;20538;-76
2022/04/22 00:50:49;;;;;;;7.73;7.03;;;;;;;;;;5091094;28;20440;-76
2022/04/22 00:53:17;;;;;;;8.60;7.80;;;;;;;;;;5092309;28;20479;-76
2022/04/22 00:55:44;;;;;;;7.90;7.20;;;;;;;;;;5093011;28;20479;-77
2022/04/22 00:58:12;;;;;;;7.90;7.30;;;;;;;;;;5091279;28;20950;-76
2022/04/22 01:00:41;;;;;;;7.70;7.00;;;;;;;;;;5092567;28;20451;-76
2022/04/22 01:03:08;;;;;;;8.43;7.60;;;;;;;;;;5091581;28;20444;-77
2022/04/22 01:11:05;;;;;;;9.77;8.77;;;;;;;;;;5091270;28;20504;-76
2022/04/22 01:13:32;;;;;;;8.47;7.77;;;;;;;;;;5090237;28;20838;-76
2022/04/22 01:16:01;;;;;;;9.40;8.43;;;;;;;;;;5090900;28;20951;-76
2022/04/22 01:18:28;;;;;;;7.90;7.30;;;;;;;;;;5090833;28;20447;-76
2022/04/22 01:20:55;;;;;;;9.30;8.50;;;;;;;;;;5091113;28;20447;-77
2022/04/22 01:23:23;;;;;;;9.00;8.10;;;;;;;;;;5090711;28;20468;-75
2022/04/22 01:25:52;;;;;;;8.53;7.70;;;;;;;;;;5090873;28;20448;-76
2022/04/22 01:28:20;;;;;;;9.77;8.00;;;;;;;;;;5090761;28;21023;-77
2022/04/22 01:30:48;;;;;;;8.90;8.20;;;;;;;;;;5091272;28;20448;-78
2022/04/22 01:33:15;;;;;;;8.40;7.67;;;;;;;;;;5090978;28;20810;-77
2022/04/22 01:35:42;;;;;;;9.93;9.10;;;;;;;;;;5090767;28;20472;-76
2022/04/22 01:38:09;;;;;;;9.67;8.70;;;;;;;;;;5090789;28;20459;-77
2022/04/22 01:40:37;;;;;;;9.10;8.37;;;;;;;;;;5090625;28;20946;-75
2022/04/22 01:43:05;;;;;;;9.93;9.13;;;;;;;;;;5091843;28;20436;-76
2022/04/22 01:45:33;;;;;;;9.70;8.80;;;;;;;;;;5094960;28;20498;-78
2022/04/22 01:48:00;;;;;;;9.37;8.47;;;;;;;;;;5094940;28;20766;-78
2022/04/22 01:50:27;;;;;;;9.80;9.00;;;;;;;;;;5094859;28;20443;-77
2022/04/22 01:52:54;;;;;;;10.70;9.80;;;;;;;;;;5094419;28;20538;-76
2022/04/22 01:55:22;;;;;;;9.80;8.90;;;;;;;;;;5094563;28;20470;-77
2022/04/22 01:57:50;;;;;;;11.50;10.13;;;;;;;;;;5094423;28;20992;-77
2022/04/22 02:00:18;;;;;;;11.13;10.13;;;;;;;;;;5094560;28;20964;-76
2022/04/22 02:02:45;;;;;;;10.77;9.80;;;;;;;;;;5094123;28;20440;-76
2022/04/22 02:05:12;;;;;;;11.10;10.00;;;;;;;;;;5095297;28;20463;-78
2022/04/22 02:07:41;;;;;;;10.80;9.90;;;;;;;;;;5094428;28;20844;-78
2022/04/22 02:10:09;;;;;;;11.10;10.00;;;;;;;;;;5095218;28;20444;-77
2022/04/22 02:12:36;;;;;;;11.87;10.77;;;;;;;;;;5094043;28;20454;-77
2022/04/22 02:15:04;;;;;;;12.30;11.10;;;;;;;;;;5094102;28;20479;-77
2022/04/22 02:17:31;;;;;;;12.23;10.93;;;;;;;;;;5094495;28;20439;-76
2022/04/22 02:19:58;;;;;;;12.20;11.00;;;;;;;;;;5094717;28;20452;-78
2022/04/22 02:22:26;;;;;;;12.30;11.20;;;;;;;;;;5094498;28;20860;-78
2022/04/22 02:24:53;;;;;;;12.73;11.53;;;;;;;;;;5094317;28;20443;-77
2022/04/22 02:30:06;;;;;;;12.90;11.60;;;;;;;;;;5094137;28;20422;-76
2022/04/22 02:32:33;;;;;;;13.03;11.80;;;;;;;;;;5093745;28;20455;-76
2022/04/22 02:35:02;;;;;;;12.83;11.43;;;;;;;;;;5093925;28;20479;-76
2022/04/22 02:37:29;;;;;;;12.90;11.63;;;;;;;;;;5094139;28;20830;-76
2022/04/22 02:39:56;;;;;;;11.93;10.83;;;;;;;;;;5094043;28;20505;-77
2022/04/22 02:47:59;;;;;;;13.87;12.47;;;;;;;;;;5082778;28;20604;-75
2022/04/22 02:50:26;;;;;;;15.20;13.60;;;;;;;;;;5093867;28;20473;-76
2022/04/22 02:52:53;;;;;;;14.40;12.90;;;;;;;;;;5095162;28;20698;-77
2022/04/22 02:55:20;;;;;;;15.23;13.80;;;;;;;;;;5095015;28;20467;-77
2022/04/22 02:57:47;;;;;;;14.60;13.20;;;;;;;;;;5098455;28;20434;-76
2022/04/22 03:00:16;;;;;;;14.70;12.90;;;;;;;;;;5103170;28;20824;-77
2022/04/22 03:02:43;;;;;;;15.43;13.83;;;;;;;;;;5103913;28;20459;-78
2022/04/22 03:05:11;;;;;;;15.63;14.13;;;;;;;;;;5104275;28;20463;-76
2022/04/22 03:07:38;;;;;;;17.80;14.60;;;;;;;;;;5103596;28;20832;-77
2022/04/22 03:10:05;;;;;;;16.90;14.33;;;;;;;;;;5094579;28;20486;-78
2022/04/22 03:12:34;;;;;;;16.80;14.73;;;;;;;;;;5093633;28;20458;-76
2022/04/22 03:15:01;;;;;;;16.83;15.03;;;;;;;;;;5092970;28;20529;-77
2022/04/22 03:17:30;;;;;;;16.00;14.27;;;;;;;;;;5093433;28;20470;-75
2022/04/22 03:19:57;;;;;;;15.90;14.37;;;;;;;;;;5093085;28;20450;-76
2022/04/22 03:22:26;;;;;;;16.70;15.10;;;;;;;;;;5093198;28;20824;-79
2022/04/22 03:24:53;;;;;;;16.70;15.03;;;;;;;;;;5092779;28;20907;-77
2022/04/22 03:27:20;;;;;;;17.30;15.50;;;;;;;;;;5093212;28;20451;-76
2022/04/22 03:29:48;;;;;;;17.43;15.67;;;;;;;;;;5093570;28;20439;-77
2022/04/22 03:32:15;;;;;;;16.17;14.67;;;;;;;;;;5093715;28;20826;-75
2022/04/22 03:34:43;;;;;;;16.20;14.60;;;;;;;;;;5093078;28;20492;-77
2022/04/22 03:37:10;;;;;;;16.67;15.07;;;;;;;;;;5093902;28;20432;-77
2022/04/22 03:39:38;;;;;;;18.13;16.30;;;;;;;;;;5094860;28;20845;-78
2022/04/22 03:42:05;;;;;;;16.83;15.10;;;;;;;;;;5095863;28;20447;-77
2022/04/22 03:44:32;;;;;;;16.87;15.17;;;;;;;;;;5097407;28;20435;-76
2022/04/22 03:46:59;;;;;;;20.50;17.07;;;;;;;;;;5096513;28;20463;-76
2022/04/22 03:49:26;;;;;;;18.40;16.57;;;;;;;;;;5093274;28;20469;-76
2022/04/22 03:51:54;;;;;;;19.43;17.23;;;;;;;;;;5093519;28;20471;-77
2022/04/22 03:54:23;;;;;;;21.10;17.90;;;;;;;;;;5095912;28;20481;-77
2022/04/22 03:59:35;;;;;;;19.93;17.83;;;;;;;;;;5097605;28;20411;-76
2022/04/22 04:02:02;;;;;;;19.00;17.10;;;;;;;;;;5096722;28;20865;-77
2022/04/22 04:04:29;;;;;;;20.33;17.93;;;;;;;;;;5095268;28;20909;-76
2022/04/22 04:06:57;;;;;;;21.83;17.67;;;;;;;;;;5096816;28;20978;-76
2022/04/22 04:17:40;;;;;;;23.13;19.30;;;;;;;;;;5093678;28;20419;-76
2022/04/22 04:25:39;;;;;;;20.87;18.30;;;;;;;;;;5092948;28;20439;-77
2022/04/22 04:28:09;;;;;;;20.37;18.13;;;;;;;;;;5092013;28;20454;-76
2022/04/22 04:30:37;;;;;;;22.10;18.43;;;;;;;;;;5092213;28;20505;-76
2022/04/22 04:33:04;;;;;;;21.70;18.47;;;;;;;;;;5091738;28;20539;-75
2022/04/22 04:35:31;;;;;;;20.83;18.53;;;;;;;;;;5092372;28;20498;-77
2022/04/22 04:37:59;;;;;;;21.63;19.43;;;;;;;;;;5091671;28;20447;-77
2022/04/22 04:40:26;;;;;;;21.47;19.33;;;;;;;;;;5092220;28;20440;-76
2022/04/22 04:42:53;;;;;;;22.40;19.67;;;;;;;;;;5092011;28;20449;-77
2022/04/22 04:45:20;;;;;;;21.50;19.30;;;;;;;;;;5092054;28;20467;-75
2022/04/22 04:47:48;;;;;;;29.80;26.37;;;;;;;;;;5091601;28;20446;-77
2022/04/22 04:50:15;;;;;;;20.53;18.43;;;;;;;;;;5092509;28;20817;-77
2022/04/22 04:52:42;;;;;;;20.17;18.17;;;;;;;;;;5091480;28;20446;-77
2022/04/22 04:55:13;;;;;;;21.27;19.03;;;;;;;;;;5091445;28;20483;-76
2022/04/22 04:57:41;;;;;;;20.30;18.20;;;;;;;;;;5091750;28;20870;-76
2022/04/22 05:00:09;;;;;;;19.40;17.30;;;;;;;;;;5092413;28;20478;-76
2022/04/22 05:02:36;;;;;;;24.30;18.67;;;;;;;;;;5091915;28;20969;-77
2022/04/22 05:05:03;;;;;;;20.30;18.10;;;;;;;;;;5091894;28;21091;-77
2022/04/22 05:07:30;;;;;;;22.33;20.13;;;;;;;;;;5091853;28;20902;-76
2022/04/22 05:09:57;;;;;;;22.50;19.33;;;;;;;;;;5092292;28;20458;-78
2022/04/22 05:12:26;;;;;;;22.40;20.00;;;;;;;;;;5092295;28;20431;-75
2022/04/22 05:14:53;;;;;;;21.93;19.63;;;;;;;;;;5091880;28;20470;-78
2022/04/22 05:17:20;;;;;;;21.90;19.20;;;;;;;;;;5095222;28;20439;-76
2022/04/22 05:19:47;;;;;;;25.07;20.63;;;;;;;;;;5099224;28;20446;-76
2022/04/22 05:22:14;;;;;;;24.07;21.23;;;;;;;;;;5099396;28;20525;-75
2022/04/22 05:24:41;;;;;;;22.93;20.47;;;;;;;;;;5099169;28;20450;-77
2022/04/22 05:27:08;;;;;;;24.90;22.20;;;;;;;;;;5098571;28;20459;-75
2022/04/22 05:32:40;;;;;;;26.57;21.40;;;;;;;;;;5098697;28;20504;-77
2022/04/22 05:35:08;;;;;;;22.50;19.27;;;;;;;;;;5097126;28;20486;-77
2022/04/22 05:37:45;;;;;;;26.07;19.73;;;;;;;;;;5097031;28;20467;-78
2022/04/22 05:40:13;;;;;;;24.13;20.90;;;;;;;;;;5097301;28;20443;-77
2022/04/22 05:42:40;;;;;;;24.20;20.57;;;;;;;;;;5097869;28;20451;-75
2022/04/22 05:45:10;;;;;;;24.57;21.90;;;;;;;;;;5098914;28;20838;-78
2022/04/22 05:47:38;;;;;;;28.87;21.80;;;;;;;;;;5098536;28;20501;-76
2022/04/22 05:50:06;;;;;;;25.43;21.27;;;;;;;;;;5097121;28;20442;-77
2022/04/22 05:52:33;;;;;;;23.63;21.03;;;;;;;;;;5098037;28;20447;-78
2022/04/22 05:55:02;;;;;;;25.77;22.57;;;;;;;;;;5093327;28;20475;-76
2022/04/22 05:57:30;;;;;;;25.40;22.70;;;;;;;;;;5095859;28;20436;-77
2022/04/22 05:59:58;;;;;;;24.20;21.70;;;;;;;;;;5095863;28;20897;-75
2022/04/22 06:02:26;;;;;;;32.43;24.53;;;;;;;;;;5096266;28;20435;-76
2022/04/22 06:04:53;;;;;;;25.23;22.63;;;;;;;;;;5103930;27;20439;-77
2022/04/22 06:07:21;;;;;;;26.40;23.70;;;;;;;;;;5103856;27;20427;-76
2022/04/22 06:12:32;;;;;;;27.90;23.00;;;;;;;;;;5097453;28;20533;-75
2022/04/22 06:15:01;;;;;;;26.17;23.40;;;;;;;;;;5099151;28;20479;-76
2022/04/22 06:17:30;;;;;;;27.60;24.13;;;;;;;;;;5101527;28;20447;-77
2022/04/22 06:19:58;;;;;;;29.70;24.50;;;;;;;;;;5103737;28;20512;-77
2022/04/22 06:22:25;;;;;;;28.57;24.70;;;;;;;;;;5097822;28;20908;-77
2022/04/22 06:24:53;;;;;;;28.47;23.37;;;;;;;;;;5096925;28;20443;-77
2022/04/22 06:27:27;;;;;;;28.70;22.90;;;;;;;;;;5102963;28;20446;-79
2022/04/22 06:29:54;;;;;;;30.40;23.93;;;;;;;;;;5095697;28;20446;-78
2022/04/22 06:32:22;;;;;;;26.40;23.70;;;;;;;;;;5093653;28;20439;-77
2022/04/22 06:34:52;;;;;;;28.10;25.30;;;;;;;;;;5095907;28;20490;-77
2022/04/22 06:37:19;;;;;;;32.70;24.67;;;;;;;;;;5093893;28;20456;-79
2022/04/22 06:48:01;;;;;;;30.50;24.97;;;;;;;;;;5094590;28;20467;-78
2022/04/22 06:50:30;;;;;;;27.67;24.73;;;;;;;;;;5098853;28;20457;-77
2022/04/22 06:52:57;;;;;;;30.47;26.93;;;;;;;;;;5095891;28;20553;-77
2022/04/22 06:55:25;;;;;;;27.30;23.90;;;;;;;;;;5090719;28;20500;-76
2022/04/22 06:57:53;;;;;;;27.13;24.23;;;;;;;;;;5090275;28;20955;-77
2022/04/22 07:00:21;;;;;;;26.83;24.03;;;;;;;;;;5081168;28;20453;-76
2022/04/22 07:02:48;;;;;;;26.97;24.17;;;;;;;;;;5072647;28;20456;-77
2022/04/22 07:05:16;;;;;;;27.23;24.43;;;;;;;;;;5073240;28;20494;-77
2022/04/22 07:07:44;;;;;;;26.97;23.90;;;;;;;;;;5093217;28;20452;-76
2022/04/22 07:10:12;;;;;;;27.93;24.23;;;;;;;;;;5093719;28;20451;-77
2022/04/22 07:12:39;;;;;;;28.00;24.00;;;;;;;;;;5095909;28;20444;-75
2022/04/22 07:15:06;;;;;;;26.97;24.17;;;;;;;;;;5096722;28;20491;-75
2022/04/22 07:17:34;;;;;;;25.23;22.53;;;;;;;;;;5098251;28;21011;-76
2022/04/22 07:20:02;;;;;;;26.43;23.70;;;;;;;;;;5097144;28;20452;-77
2022/04/22 07:22:30;;;;;;;27.97;25.10;;;;;;;;;;5100117;28;20440;-76
2022/04/22 07:24:58;;;;;;;29.20;25.33;;;;;;;;;;5083686;28;20444;-77
2022/04/22 07:27:27;;;;;;;28.33;25.27;;;;;;;;;;5071944;28;20862;-75
2022/04/22 07:29:54;;;;;;;26.13;23.37;;;;;;;;;;5072721;28;20482;-76
2022/04/22 07:32:22;;;;;;;23.77;21.37;;;;;;;;;;5073787;28;20433;-76
2022/04/22 07:34:49;;;;;;;25.93;23.23;;;;;;;;;;5073327;28;20476;-76
2022/04/22 07:37:16;;;;;;;27.10;24.20;;;;;;;;;;5072207;28;20456;-77
2022/04/22 07:39:44;;;;;;;25.13;21.77;;;;;;;;;;5071281;28;20452;-78
2022/04/22 07:42:15;;;;;;;27.60;24.67;;;;;;;;;;5071228;28;20448;-78
2022/04/22 07:47:31;;;;;;;35.40;24.70;;;;;;;;;;5084265;28;20421;-77
2022/04/22 07:49:59;;;;;;;27.13;24.23;;;;;;;;;;5075092;28;20797;-76
2022/04/22 07:52:26;;;;;;;26.23;23.40;;;;;;;;;;5071504;28;20449;-76
2022/04/22 07:54:53;;;;;;;26.33;23.70;;;;;;;;;;5071392;28;20479;-78
2022/04/22 07:57:22;;;;;;;27.33;24.43;;;;;;;;;;5071196;28;20452;-78
2022/04/22 07:59:49;;;;;;;27.40;24.50;;;;;;;;;;5071606;28;20535;-76
2022/04/22 08:02:16;;;;;;;25.53;22.83;;;;;;;;;;5070726;28;20436;-77
2022/04/22 08:04:43;;;;;;;26.90;24.10;;;;;;;;;;5071042;28;20441;-77
2022/04/22 08:07:11;;;;;;;26.13;23.37;;;;;;;;;;5086422;28;20443;-78
2022/04/22 08:09:38;;;;;;;24.97;22.40;;;;;;;;;;5093194;28;20554;-78
2022/04/22 08:12:05;;;;;;;25.80;23.20;;;;;;;;;;5092020;28;20774;-78
2022/04/22 08:14:34;;;;;;;25.57;23.03;;;;;;;;;;5091461;28;20447;-77
2022/04/22 08:17:01;;;;;;;25.20;22.70;;;;;;;;;;5091591;28;20455;-76
2022/04/22 08:19:28;;;;;;;25.07;22.30;;;;;;;;;;5091700;28;20448;-76
2022/04/22 08:21:56;;;;;;;25.80;23.30;;;;;;;;;;5092013;28;20825;-77
2022/04/22 08:24:23;;;;;;;24.73;22.27;;;;;;;;;;5091262;28;20451;-77
2022/04/22 08:26:50;;;;;;;25.17;22.67;;;;;;;;;;5091209;28;20503;-77
2022/04/22 08:29:18;;;;;;;25.80;23.30;;;;;;;;;;5091372;28;20479;-77
2022/04/22 08:31:47;;;;;;;23.93;21.63;;;;;;;;;;5091486;28;20871;-79
2022/04/22 08:34:14;;;;;;;24.37;21.97;;;;;;;;;;5090762;28;20955;-77
2022/04/22 08:36:43;;;;;;;27.27;24.23;;;;;;;;;;5090747;28;20480;-76
2022/04/22 08:39:10;;;;;;;23.17;21.07;;;;;;;;;;5090750;28;20471;-78
2022/04/22 08:41:38;;;;;;;24.40;21.90;;;;;;;;;;5090303;28;20451;-77
2022/04/22 08:44:06;;;;;;;24.17;21.77;;;;;;;;;;5090504;28;20482;-77
2022/04/22 08:52:05;;;;;;;22.10;19.90;;;;;;;;;;5090336;28;20530;-78
2022/04/22 08:54:35;;;;;;;21.47;19.37;;;;;;;;;;5089895;28;20428;-78
2022/04/22 08:57:03;;;;;;;23.53;21.13;;;;;;;;;;5089831;28;20486;-77
2022/04/22 08:59:30;;;;;;;22.03;20.00;;;;;;;;;;5089776;28;20455;-76
2022/04/22 09:01:57;;;;;;;21.77;19.60;;;;;;;;;;5090077;28;20945;-77
2022/04/22 09:04:27;;;;;;;21.13;19.20;;;;;;;;;;5089922;28;20446;-77
2022/04/22 09:06:54;;;;;;;21.47;19.57;;;;;;;;;;5090330;28;20510;-76
2022/04/22 09:09:21;;;;;;;22.63;20.43;;;;;;;;;;5090247;28;20452;-76
2022/04/22 09:11:48;;;;;;;21.60;19.60;;;;;;;;;;5090374;28;20440;-77
2022/04/22 09:14:18;;;;;;;22.07;19.97;;;;;;;;;;5089746;28;20450;-77
2022/04/22 09:16:45;;;;;;;20.93;18.93;;;;;;;;;;5089986;28;20982;-77
2022/04/22 09:19:18;;;;;;;20.93;19.03;;;;;;;;;;5089923;28;20740;-77
2022/04/22 09:21:56;;;;;;;21.93;19.90;;;;;;;;;;5090567;28;20432;-77
2022/04/22 09:24:23;;;;;;;20.97;18.90;;;;;;;;;;5089890;28;20451;-78
2022/04/22 09:27:03;;;;;;;20.80;18.80;;;;;;;;;;5090361;28;20470;-78
2022/04/22 09:29:30;;;;;;;19.50;17.70;;;;;;;;;;5091611;28;20439;-78
2022/04/22 09:31:58;;;;;;;18.60;17.00;;;;;;;;;;5091824;28;20447;-77
2022/04/22 09:34:34;;;;;;;20.67;18.30;;;;;;;;;;5089574;28;20436;-78
2022/04/22 09:42:52;;;;;;;21.17;19.13;;;;;;;;;;5091276;28;20934;-77
2022/04/22 09:45:20;;;;;;;18.43;16.83;;;;;;;;;;5090396;28;20483;-75
2022/04/22 09:47:57;;;;;;;20.17;18.27;;;;;;;;;;5101212;28;20451;-76
2022/04/22 09:50:39;;;;;;;20.93;18.90;;;;;;;;;;5102042;28;20451;-76
2022/04/22 09:53:08;;;;;;;19.63;17.93;;;;;;;;;;5102092;28;20515;-75
2022/04/22 09:55:37;;;;;;;19.50;17.80;;;;;;;;;;5098714;28;20487;-76
2022/04/22 09:58:04;;;;;;;19.77;17.97;;;;;;;;;;5097204;28;20436;-76
2022/04/22 10:00:32;;;;;;;19.97;18.00;;;;;;;;;;5092657;28;20938;-77
2022/04/22 10:03:00;;;;;;;19.37;17.63;;;;;;;;;;5089526;28;20444;-77
2022/04/22 10:05:28;;;;;;;19.00;17.30;;;;;;;;;;5093464;28;20463;-77
2022/04/22 10:07:56;;;;;;;20.70;18.87;;;;;;;;;;5073136;28;20448;-76
2022/04/22 10:10:27;;;;;;;19.77;18.00;;;;;;;;;;5073079;28;21024;-75
2022/04/22 10:12:57;;;;;;;18.50;16.90;;;;;;;;;;5072807;28;20455;-77
2022/04/22 10:15:26;;;;;;;17.30;15.77;;;;;;;;;;5073081;28;20993;-75
2022/04/22 10:17:53;;;;;;;18.10;16.50;;;;;;;;;;5073199;28;20451;-76
2022/04/22 10:20:20;;;;;;;18.83;17.03;;;;;;;;;;5074413;28;20478;-76
2022/04/22 10:22:48;;;;;;;16.93;15.30;;;;;;;;;;5074467;28;20482;-76
2022/04/22 10:25:15;;;;;;;18.83;17.10;;;;;;;;;;5074077;28;20884;-78
2022/04/22 10:27:44;;;;;;;17.10;15.70;;;;;;;;;;5074273;28;20518;-76
2022/04/22 10:30:12;;;;;;;18.50;17.00;;;;;;;;;;5074926;28;20455;-76
2022/04/22 10:32:40;;;;;;;17.60;15.97;;;;;;;;;;5072758;28;20502;-77
2022/04/22 10:35:08;;;;;;;18.00;16.43;;;;;;;;;;5072570;28;20491;-78
2022/04/22 10:37:38;;;;;;;16.10;14.80;;;;;;;;;;5072907;28;20444;-78
2022/04/22 10:40:05;;;;;;;17.30;15.73;;;;;;;;;;5072206;28;20487;-76
2022/04/22 10:42:33;;;;;;;17.20;15.70;;;;;;;;;;5071839;28;20479;-75
2022/04/22 10:47:51;;;;;;;17.00;15.50;;;;;;;;;;5072465;28;20420;-75
2022/04/22 10:50:25;;;;;;;15.23;14.03;;;;;;;;;;5072372;28;20479;-77
2022/04/22 10:53:01;;;;;;;16.83;15.43;;;;;;;;;;5072004;28;20451;-77
2022/04/22 10:55:29;;;;;;;16.07;14.80;;;;;;;;;;5071986;28;20464;-77
2022/04/22 10:58:11;;;;;;;17.13;15.63;;;;;;;;;;5072153;28;20899;-77
2022/04/22 11:00:40;;;;;;;18.23;16.67;;;;;;;;;;5072221;28;20465;-78
2022/04/22 11:03:13;;;;;;;18.10;16.43;;;;;;;;;;5072467;28;20464;-77
2022/04/22 11:05:45;;;;;;;17.93;16.33;;;;;;;;;;5073498;28;20463;-77
2022/04/22 11:08:18;;;;;;;18.27;16.70;;;;;;;;;;5092128;28;20546;-76
2022/04/22 11:11:08;;;;;;;19.90;18.30;;;;;;;;;;5092385;28;20459;-78
2022/04/22 11:13:40;;;;;;;17.63;16.13;;;;;;;;;;5092332;28;20435;-76
2022/04/22 11:16:09;;;;;;;18.00;16.23;;;;;;;;;;5092133;28;20483;-77
2022/04/22 11:18:36;;;;;;;18.53;16.93;;;;;;;;;;5093127;28;20897;-77
2022/04/22 11:21:04;;;;;;;19.43;17.80;;;;;;;;;;5091514;28;20488;-76
2022/04/22 11:23:36;;;;;;;16.10;14.80;;;;;;;;;;5091884;28;20823;-77
2022/04/22 11:26:03;;;;;;;17.30;15.90;;;;;;;;;;5091925;28;20472;-77
2022/04/22 11:28:34;;;;;;;16.10;14.80;;;;;;;;;;5091925;28;20444;-76
2022/04/22 11:31:03;;;;;;;17.57;16.00;;;;;;;;;;5091937;28;20440;-77
2022/04/22 11:33:35;;;;;;;16.47;14.60;;;;;;;;;;5091424;28;20442;-77
2022/04/22 11:36:06;;;;;;;17.47;15.87;;;;;;;;;;5091492;28;20506;-77
2022/04/22 11:38:33;;;;;;;16.43;15.13;;;;;;;;;;5091872;28;20455;-77
2022/04/22 11:41:00;;;;;;;17.93;16.40;;;;;;;;;;5092294;28;20530;-78
2022/04/22 11:43:29;;;;;;;16.90;15.57;;;;;;;;;;5092548;28;20456;-77
2022/04/22 11:45:56;;;;;;;15.70;14.40;;;;;;;;;;5092186;28;20464;-78
2022/04/22 11:48:24;;;;;;;14.73;13.43;;;;;;;;;;5093057;28;20451;-75
2022/04/22 11:50:53;;;;;;;15.23;14.03;;;;;;;;;;5092664;28;20508;-78
2022/04/22 11:53:20;;;;;;;14.23;13.13;;;;;;;;;;5092143;28;20447;-77
2022/04/22 11:55:48;;;;;;;15.47;14.07;;;;;;;;;;5091536;28;20538;-77
2022/04/22 11:58:16;;;;;;;16.70;15.40;;;;;;;;;;5091996;28;20443;-77
2022/04/22 12:06:16;;;;;;;15.97;14.67;;;;;;;;;;5091544;28;20587;-76
2022/04/22 12:08:51;;;;;;;15.37;14.13;;;;;;;;;;5094790;28;20444;-78
2022/04/22 12:11:19;;;;;;;14.53;13.40;;;;;;;;;;5097981;28;20451;-79
2022/04/22 12:13:46;;;;;;;14.97;13.87;;;;;;;;;;5097785;28;20448;-78
2022/04/22 12:16:17;;;;;;;16.60;15.17;;;;;;;;;;5095847;28;20895;-80
2022/04/22 12:18:46;;;;;;;14.83;13.63;;;;;;;;;;5095632;28;20443;-76
2022/04/22 12:21:13;;;;;;;15.17;12.90;;;;;;;;;;5092804;28;20469;-77
2022/04/22 12:23:43;;;;;;;15.10;13.90;;;;;;;;;;5092916;28;21104;-76
2022/04/22 12:26:17;;;;;;;15.67;14.43;;;;;;;;;;5091264;28;20533;-77
2022/04/22 12:28:57;;;;;;;16.00;14.60;;;;;;;;;;5091850;28;20807;-78
2022/04/22 12:31:25;;;;;;;15.50;14.30;;;;;;;;;;5091858;28;20448;-78
2022/04/22 12:33:57;;;;;;;15.73;14.33;;;;;;;;;;5092153;28;20452;-77
2022/04/22 12:36:24;;;;;;;15.60;14.40;;;;;;;;;;5091552;28;20480;-78
2022/04/22 12:38:53;;;;;;;16.97;15.57;;;;;;;;;;5091497;28;20448;-80
2022/04/22 12:41:22;;;;;;;13.97;12.70;;;;;;;;;;5092757;28;20439;-79
2022/04/22 12:43:50;;;;;;;15.30;14.00;;;;;;;;;;5091755;28;20496;-79
2022/04/22 12:52:11;;;;;;;14.67;13.47;;;;;;;;;;5090400;28;20458;-78
2022/04/22 12:54:41;;;;;;;14.17;13.03;;;;;;;;;;5090889;28;21097;-79
2022/04/22 12:57:11;;;;;;;12.67;11.47;;;;;;;;;;5086805;28;20475;-78
2022/04/22 12:59:42;;;;;;;13.73;12.63;;;;;;;;;;5090728;28;20447;-79
2022/04/22 13:02:10;;;;;;;13.87;12.83;;;;;;;;;;5091125;28;20452;-78
2022/04/22 13:04:50;;;;;;;12.73;11.60;;;;;;;;;;5092065;28;20446;-78
2022/04/22 13:07:18;;;;;;;13.10;12.03;;;;;;;;;;5092221;28;20428;-78
2022/04/22 13:09:47;;;;;;;13.57;12.47;;;;;;;;;;5090939;28;20534;-78
2022/04/22 13:12:14;;;;;;;13.90;12.80;;;;;;;;;;5090732;28;20436;-79
2022/04/22 13:14:41;;;;;;;12.90;11.80;;;;;;;;;;5091104;28;20469;-78
2022/04/22 13:17:18;;;;;;;13.23;12.03;;;;;;;;;;5086467;28;20488;-77
2022/04/22 13:19:45;;;;;;;14.60;13.37;;;;;;;;;;5092028;28;20450;-77
2022/04/22 13:22:12;;;;;;;13.70;12.60;;;;;;;;;;5082234;28;20439;-79
2022/04/22 13:24:40;;;;;;;15.40;14.00;;;;;;;;;;5081523;28;20444;-78
2022/04/22 13:27:08;;;;;;;13.97;12.70;;;;;;;;;;5093204;28;20828;-79
2022/04/22 13:29:35;;;;;;;13.00;12.00;;;;;;;;;;5092630;28;20447;-79
2022/04/22 13:32:02;;;;;;;13.50;12.40;;;;;;;;;;5090789;28;20444;-77
2022/04/22 13:34:29;;;;;;;13.33;12.10;;;;;;;;;;5090409;28;20907;-78
2022/04/22 13:36:56;;;;;;;11.90;10.80;;;;;;;;;;5090494;28;20476;-78
2022/04/22 13:39:23;;;;;;;12.00;11.00;;;;;;;;;;5093781;28;20990;-79
2022/04/22 13:41:51;;;;;;;11.50;10.60;;;;;;;;;;5094298;28;20447;-78
2022/04/22 13:52:21;;;;;;;10.73;9.93;;;;;;;;;;5093641;28;20546;-78
2022/04/22 13:52:36;;;;;;;12.73;11.73;;;;;;;;;;5094057;28;20395;-78
2022/04/22 13:55:03;;;;;;;12.30;11.33;;;;;;;;;;5093871;28;20447;-78
2022/04/22 13:57:30;;;;;;;11.87;11.00;;;;;;;;;;5094036;28;20491;-78
2022/04/22 13:59:59;;;;;;;13.27;12.27;;;;;;;;;;5094694;28;20443;-77
2022/04/22 14:02:26;;;;;;;13.70;12.60;;;;;;;;;;5094459;28;20829;-79
2022/04/22 14:04:53;;;;;;;13.67;12.57;;;;;;;;;;5093145;28;20901;-79
2022/04/22 14:07:20;;;;;;;14.70;13.50;;;;;;;;;;5094164;28;20447;-78
2022/04/22 14:09:47;;;;;;;13.83;12.73;;;;;;;;;;5094983;28;20461;-80
2022/04/22 14:12:14;;;;;;;13.77;12.67;;;;;;;;;;5095907;28;20443;-79
2022/04/22 14:14:43;;;;;;;12.90;12.00;;;;;;;;;;5094465;28;20448;-79
2022/04/22 14:17:12;;;;;;;12.33;11.13;;;;;;;;;;5095789;28;20559;-79
2022/04/22 14:19:39;;;;;;;12.00;11.03;;;;;;;;;;5095073;28;20455;-80
2022/04/22 14:22:06;;;;;;;12.30;11.30;;;;;;;;;;5095204;28;20427;-79
2022/04/22 14:24:33;;;;;;;11.13;10.13;;;;;;;;;;5093840;28;21035;-77
2022/04/22 14:27:03;;;;;;;10.27;9.50;;;;;;;;;;5094393;28;20459;-79
2022/04/22 14:29:30;;;;;;;10.10;9.40;;;;;;;;;;5094690;28;20501;-79
2022/04/22 14:31:57;;;;;;;10.30;9.50;;;;;;;;;;5093358;28;21037;-80
2022/04/22 14:34:25;;;;;;;12.90;11.63;;;;;;;;;;5095052;28;20443;-78
2022/04/22 14:36:53;;;;;;;12.53;11.57;;;;;;;;;;5093744;28;20478;-78
2022/04/22 14:39:20;;;;;;;12.70;11.70;;;;;;;;;;5093471;28;20984;-77
2022/04/22 14:41:47;;;;;;;11.20;10.20;;;;;;;;;;5093595;28;20456;-78
2022/04/22 14:44:15;;;;;;;11.47;10.57;;;;;;;;;;5093714;28;20450;-79
2022/04/22 14:46:43;;;;;;;11.60;10.60;;;;;;;;;;5094285;28;20849;-78
2022/04/22 14:49:14;;;;;;;10.90;10.10;;;;;;;;;;5094295;28;20447;-78
2022/04/22 14:51:43;;;;;;;10.97;10.07;;;;;;;;;;5093424;28;20518;-78
2022/04/22 14:54:10;;;;;;;9.53;8.77;;;;;;;;;;5093025;28;20491;-79
2022/04/22 14:56:37;;;;;;;9.33;8.47;;;;;;;;;;5093099;28;20490;-79
2022/04/22 14:59:04;;;;;;;9.50;8.70;;;;;;;;;;5093086;28;20469;-78
2022/04/22 15:01:32;;;;;;;10.67;9.83;;;;;;;;;;5092868;28;20509;-79
2022/04/22 15:03:59;;;;;;;9.70;8.90;;;;;;;;;;5092796;28;20464;-77
2022/04/22 15:06:26;;;;;;;9.73;9.03;;;;;;;;;;5094713;28;20451;-79
2022/04/22 15:08:54;;;;;;;9.63;8.90;;;;;;;;;;5096150;28;20440;-77
2022/04/22 15:11:21;;;;;;;10.73;9.73;;;;;;;;;;5097041;28;20436;-78
2022/04/22 15:13:48;;;;;;;10.57;9.77;;;;;;;;;;5092859;28;20467;-78
2022/04/22 15:16:16;;;;;;;11.93;10.80;;;;;;;;;;5092304;28;20997;-78
2022/04/22 15:24:16;;;;;;;10.83;10.00;;;;;;;;;;5092398;28;20997;-78
2022/04/22 15:26:43;;;;;;;11.40;10.40;;;;;;;;;;5091814;28;20480;-77
2022/04/22 15:29:11;;;;;;;9.37;8.57;;;;;;;;;;5090896;28;20440;-78
2022/04/22 15:31:39;;;;;;;10.00;9.10;;;;;;;;;;5085384;28;20927;-80
2022/04/22 15:34:06;;;;;;;10.30;9.50;;;;;;;;;;5091416;28;20467;-78
2022/04/22 15:36:33;;;;;;;8.70;8.10;;;;;;;;;;5089709;28;20463;-77
2022/04/22 15:39:02;;;;;;;9.07;8.37;;;;;;;;;;5092219;28;20471;-78
2022/04/22 15:41:31;;;;;;;8.83;8.23;;;;;;;;;;5092419;28;20450;-76
2022/04/22 15:43:58;;;;;;;10.70;9.77;;;;;;;;;;5091671;28;20846;-78
2022/04/22 15:46:25;;;;;;;10.83;10.00;;;;;;;;;;5091619;28;20466;-81
2022/04/22 15:48:52;;;;;;;9.03;7.97;;;;;;;;;;5090362;28;20444;-77
2022/04/22 15:51:21;;;;;;;9.07;8.37;;;;;;;;;;5091727;28;20813;-77